Time;durP1;ratioP1;P1;durP2;ratioP2;P2;SDS_P1;SDS_P2;PMS_P1;PMS_P2;Temp;Humidity;BMP_temperature;BMP_pressure;BME280_temperature;BME280_humidity;BME280_pressure;Samples;Min_cycle;Max_cycle;Signal;HPM_P1;HPM_P2
2023/01/08 00:00:55;;;;;;;27.07;20.03;;;;;;;4.78;100.00;21339.72;5093679;28;20176;-60
2023/01/08 00:03:22;;;;;;;27.47;20.07;;;;;;;4.54;100.00;17192.53;5093941;28;20191;-59
2023/01/08 00:05:49;;;;;;;26.43;18.67;;;;;;;4.66;100.00;11157.34;5093560;28;20208;-60
2023/01/08 00:08:16;;;;;;;25.77;19.17;;;;;;;4.71;100.00;9253.47;5093618;28;20270;-59
2023/01/08 00:10:43;;;;;;;25.57;19.00;;;;;;;4.40;100.00;10516.63;5093931;28;20194;-59
2023/01/08 00:13:10;;;;;;;25.87;18.53;;;;;;;4.54;100.00;7981.22;5093499;28;20188;-59
2023/01/08 00:15:38;;;;;;;21.37;17.77;;;;;;;4.47;100.00;7028.59;5075994;28;20650;-59
2023/01/08 00:18:05;;;;;;;27.73;18.30;;;;;;;4.28;100.00;7342.38;5093887;28;20528;-59
2023/01/08 00:20:32;;;;;;;22.80;16.57;;;;;;;4.35;100.00;5442.00;5093333;28;20184;-59
2023/01/08 00:22:59;;;;;;;22.90;16.47;;;;;;;4.46;100.00;5760.38;5093367;28;20192;-59
2023/01/08 00:25:26;;;;;;;26.23;17.40;;;;;;;4.43;100.00;6710.91;5093399;28;20575;-60
2023/01/08 00:27:53;;;;;;;21.33;16.70;;;;;;;4.35;100.00;8929.19;5093532;28;20532;-59
2023/01/08 00:30:19;;;;;;;20.23;15.63;;;;;;;4.46;100.00;8931.34;5093166;28;20196;-59
2023/01/08 00:32:48;;;;;;;20.60;15.97;;;;;;;4.25;100.00;7024.97;5093170;28;20628;-60
2023/01/08 00:35:15;;;;;;;15.67;14.10;;;;;;;4.19;100.00;7023.97;5093005;28;20188;-59
2023/01/08 00:37:41;;;;;;;15.50;13.83;;;;;;;4.23;100.00;7341.50;5093379;28;20215;-60
2023/01/08 00:40:09;;;;;;;17.87;13.57;;;;;;;3.72;100.00;7966.50;5093277;28;20551;-59
2023/01/08 00:42:36;;;;;;;17.40;12.70;;;;;;;3.94;100.00;3853.47;5093330;28;20555;-59
2023/01/08 00:45:03;;;;;;;21.17;12.30;;;;;;;4.04;100.00;2905.19;5092852;28;20188;-59
2023/01/08 00:47:30;;;;;;;13.20;11.97;;;;;;;4.10;100.00;2272.81;5092721;28;20667;-60
2023/01/08 00:49:59;;;;;;;14.20;11.60;;;;;;;3.93;100.00;2271.34;5092901;28;20188;-59
2023/01/08 00:52:26;;;;;;;16.77;12.77;;;;;;;4.25;100.00;375.69;5092987;28;20631;-60
2023/01/08 00:54:55;;;;;;;12.57;11.50;;;;;;;4.23;100.00;-889.38;5092835;28;20188;-60
2023/01/08 00:57:22;;;;;;;13.77;12.20;;;;;;;4.48;100.00;-4681.97;5092429;28;20176;-61
2023/01/08 00:59:49;;;;;;;13.53;12.33;;;;;;;4.63;100.00;-6893.72;5092629;28;20191;-60
2023/01/08 01:02:16;;;;;;;14.20;13.00;;;;;;;4.79;100.00;-8789.47;5092591;28;20283;-60
2023/01/08 01:04:43;;;;;;;16.17;14.67;;;;;;;4.91;100.00;-8790.63;5092852;28;20231;-60
2023/01/08 01:07:11;;;;;;;15.30;12.70;;;;;;;4.94;100.00;-9106.69;5092499;28;20200;-60
2023/01/08 01:09:38;;;;;;;17.87;16.03;;;;;;;5.17;100.00;-9740.59;5092878;28;20183;-59
2023/01/08 01:12:05;;;;;;;15.17;11.73;;;;;;;5.06;100.00;-7528.44;5092584;28;20298;-59
2023/01/08 01:14:32;;;;;;;12.80;11.63;;;;;;;5.25;100.00;-5316.63;5092655;28;20612;-59
2023/01/08 01:16:59;;;;;;;13.53;12.20;;;;;;;5.02;100.00;696.72;5092719;28;20207;-59
2023/01/08 01:19:26;;;;;;;12.63;11.70;;;;;;;5.01;100.00;3231.47;5092207;28;20202;-60
2023/01/08 01:21:53;;;;;;;12.40;11.30;;;;;;;4.96;100.00;7036.63;5092441;28;20198;-58
2023/01/08 01:24:23;;;;;;;13.17;11.77;;;;;;;4.93;100.00;8623.03;5092399;28;20543;-60
2023/01/08 01:26:50;;;;;;;15.77;13.97;;;;;;;4.76;100.00;13383.59;5091982;28;20214;-59
2023/01/08 01:29:17;;;;;;;18.73;14.67;;;;;;;4.70;100.00;7984.00;5092058;28;20189;-59
2023/01/08 01:31:44;;;;;;;14.93;13.57;;;;;;;4.47;100.00;1326.31;5092341;28;20524;-60
2023/01/08 01:34:11;;;;;;;15.87;13.93;;;;;;;4.67;100.00;-5630.44;5091904;28;20227;-61
2023/01/08 01:36:38;;;;;;;29.83;20.37;;;;;;;4.92;100.00;-7527.41;5091891;28;20202;-60
2023/01/08 01:39:05;;;;;;;28.03;18.83;;;;;;;4.83;100.00;-8158.38;5092148;28;20704;-60
2023/01/08 01:41:38;;;;;;;18.20;13.30;;;;;;;4.83;100.00;-5315.09;5092017;28;20210;-60
2023/01/08 01:44:40;;;;;;;16.83;14.50;;;;;;;4.91;100.00;-3734.50;5092072;28;20593;-61
2023/01/08 01:47:17;;;;;;;23.77;16.33;;;;;;;4.87;100.00;-1203.59;5091729;28;20206;-60
2023/01/08 01:49:50;;;;;;;19.90;14.37;;;;;;;4.92;100.00;-1203.47;5073778;28;20191;-60
2023/01/08 01:52:17;;;;;;;18.07;15.57;;;;;;;4.97;100.00;-1203.31;5091759;28;20184;-59
2023/01/08 01:54:44;;;;;;;26.97;16.87;;;;;;;4.83;100.00;-1836.59;5091999;28;20558;-59
2023/01/08 01:57:12;;;;;;;24.30;17.80;;;;;;;4.93;100.00;-3418.22;5092127;28;20207;-60
2023/01/08 01:59:39;;;;;;;33.50;19.63;;;;;;;5.20;100.00;-5316.41;5091672;28;20195;-60
2023/01/08 02:02:06;;;;;;;41.20;20.07;;;;;;;5.19;100.00;-4367.53;5091952;28;20184;-60
2023/01/08 02:04:33;;;;;;;34.63;17.33;;;;;;;4.71;100.00;-3418.09;5091478;28;20635;-59
2023/01/08 02:07:06;;;;;;;67.60;25.63;;;;;;;5.19;100.00;-3734.78;5090371;28;20224;-60
2023/01/08 02:09:43;;;;;;;60.67;26.00;;;;;;;5.24;100.00;-2468.94;5091422;28;20287;-60
2023/01/08 02:12:17;;;;;;;47.40;21.93;;;;;;;5.27;100.00;-2152.34;5091344;28;20184;-59
2023/01/08 02:14:53;;;;;;;87.47;25.23;;;;;;;5.28;100.00;-2785.44;5091509;28;20190;-59
2023/01/08 02:17:27;;;;;;;61.30;24.23;;;;;;;5.25;100.00;-3101.94;5091588;28;20627;-60
2023/01/08 02:19:58;;;;;;;76.40;28.50;;;;;;;5.31;100.00;-4051.38;5091537;28;20664;-60
2023/01/08 02:22:38;;;;;;;82.67;25.73;;;;;;;5.26;100.00;-5632.91;5091572;28;20648;-61
2023/01/08 02:25:14;;;;;;;62.30;26.97;;;;;;;5.49;100.00;-7215.31;5091246;28;20191;-60
2023/01/08 02:27:48;;;;;;;44.17;21.17;;;;;;;5.54;100.00;-7848.06;5091472;28;20496;-59
2023/01/08 02:30:15;;;;;;;63.20;23.60;;;;;;;5.58;100.00;-7215.88;5091121;28;20188;-59
2023/01/08 02:32:43;;;;;;;58.07;22.67;;;;;;;5.63;100.00;-4368.44;5091103;28;20199;-59
2023/01/08 02:35:11;;;;;;;48.77;22.30;;;;;;;5.70;100.00;-4052.00;5091599;28;20677;-60
2023/01/08 02:37:38;;;;;;;60.43;22.53;;;;;;;5.58;100.00;-3101.97;5091208;28;20188;-59
2023/01/08 02:40:14;;;;;;;48.70;22.47;;;;;;;5.38;100.00;-4684.34;5091444;28;20555;-61
2023/01/08 02:42:47;;;;;;;57.17;26.53;;;;;;;5.59;100.00;-8164.66;5091403;28;20525;-59
2023/01/08 02:45:31;;;;;;;56.73;25.20;;;;;;;5.71;100.00;-9430.28;5090989;28;20184;-60
2023/01/08 02:48:05;;;;;;;45.17;22.83;;;;;;;5.60;100.00;-8480.88;5090952;28;20215;-60
2023/01/08 02:50:38;;;;;;;39.27;19.47;;;;;;;5.50;100.00;-6899.16;5091373;28;20184;-59
2023/01/08 02:53:11;;;;;;;31.93;19.40;;;;;;;5.51;100.00;-6899.25;5091358;28;20195;-59
2023/01/08 02:55:41;;;;;;;36.57;20.70;;;;;;;5.64;100.00;-7532.59;5091098;28;20192;-60
2023/01/08 02:58:11;;;;;;;36.90;19.97;;;;;;;5.69;100.00;-7532.97;5091275;28;20676;-59
2023/01/08 03:00:40;;;;;;;37.90;21.00;;;;;;;5.78;100.00;-7533.63;5091032;28;20180;-59
2023/01/08 03:03:12;;;;;;;43.63;22.23;;;;;;;5.76;100.00;-7217.16;5091230;28;20184;-59
2023/01/08 03:05:43;;;;;;;37.77;21.40;;;;;;;5.84;100.00;-7534.06;5091170;28;20234;-61
2023/01/08 03:08:12;;;;;;;33.07;21.70;;;;;;;6.04;100.00;-8168.31;5090741;28;20307;-60
2023/01/08 03:10:41;;;;;;;38.67;22.03;;;;;;;6.01;100.00;-6902.28;5091196;28;20208;-59
2023/01/08 03:13:15;;;;;;;34.57;21.03;;;;;;;5.94;100.00;-5002.50;5090944;28;20207;-59
2023/01/08 03:15:47;;;;;;;45.37;21.43;;;;;;;5.74;100.00;-5001.88;5090962;28;20283;-59
2023/01/08 03:18:21;;;;;;;35.80;21.10;;;;;;;5.59;100.00;-4051.81;5090725;28;20229;-60
2023/01/08 03:20:50;;;;;;;37.63;20.60;;;;;;;5.66;100.00;-3101.97;5094500;28;20187;-60
2023/01/08 03:23:19;;;;;;;38.03;20.03;;;;;;;5.67;100.00;-2785.25;5094347;28;20187;-61
2023/01/08 03:25:47;;;;;;;37.67;19.57;;;;;;;5.66;100.00;-3101.97;5094450;28;20188;-59
2023/01/08 03:28:22;;;;;;;37.20;20.40;;;;;;;5.62;100.00;-4051.88;5094579;28;20215;-59
2023/01/08 03:30:54;;;;;;;33.27;19.70;;;;;;;5.63;100.00;-3418.66;5094903;28;20650;-60
2023/01/08 03:33:24;;;;;;;34.93;19.73;;;;;;;5.70;100.00;-2785.25;5094784;28;20698;-60
2023/01/08 03:35:54;;;;;;;36.87;19.67;;;;;;;5.74;100.00;-2468.44;5094482;28;20188;-59
2023/01/08 03:38:25;;;;;;;40.17;20.67;;;;;;;5.55;100.00;-1518.41;5094489;28;20581;-59
2023/01/08 03:40:56;;;;;;;34.67;20.57;;;;;;;5.61;100.00;-2468.56;5094430;28;20658;-59
2023/01/08 03:43:27;;;;;;;39.83;20.80;;;;;;;5.74;100.00;-2151.63;5094504;28;20631;-59
2023/01/08 03:45:58;;;;;;;39.07;20.13;;;;;;;5.81;100.00;-3418.75;5094230;28;20237;-60
2023/01/08 03:48:26;;;;;;;35.30;19.83;;;;;;;5.90;100.00;-4685.72;5093873;28;20260;-60
2023/01/08 03:50:53;;;;;;;37.50;19.90;;;;;;;6.01;100.00;-4685.97;5094495;28;20184;-59
2023/01/08 03:53:22;;;;;;;23.90;16.70;;;;;;;6.03;100.00;-4369.28;5093914;28;20192;-59
2023/01/08 03:55:49;;;;;;;26.90;17.20;;;;;;;6.12;100.00;-6586.41;5093979;28;20192;-59
2023/01/08 03:58:16;;;;;;;24.40;18.23;;;;;;;6.24;100.00;-8486.50;5093829;28;20185;-59
2023/01/08 04:00:44;;;;;;;26.13;17.77;;;;;;;6.03;100.00;-9117.31;5094762;28;20208;-59
2023/01/08 04:03:11;;;;;;;32.93;18.57;;;;;;;6.37;100.00;-10069.91;5093957;28;20200;-59
2023/01/08 04:05:37;;;;;;;26.57;17.23;;;;;;;6.28;100.00;-9119.78;5093739;28;20202;-61
2023/01/08 04:08:05;;;;;;;21.53;17.77;;;;;;;6.11;100.00;-8168.91;5093486;28;20211;-59
2023/01/08 04:10:32;;;;;;;22.77;16.13;;;;;;;5.93;100.00;-4052.38;5093479;28;20180;-60
2023/01/08 04:12:59;;;;;;;28.10;16.23;;;;;;;5.89;100.00;-4052.31;5093505;28;20184;-64
2023/01/08 04:15:26;;;;;;;21.77;15.30;;;;;;;5.84;100.00;-3735.50;5093424;28;20189;-59
2023/01/08 04:17:54;;;;;;;20.50;15.70;;;;;;;5.59;100.00;-4051.81;5093779;28;20187;-59
2023/01/08 04:20:21;;;;;;;27.87;16.07;;;;;;;5.60;100.00;-6899.78;5093671;28;20188;-59
2023/01/08 04:22:48;;;;;;;19.90;16.17;;;;;;;5.58;100.00;-7532.16;5093538;28;20188;-61
2023/01/08 04:25:15;;;;;;;22.17;15.30;;;;;;;5.87;100.00;-7217.88;5093619;28;20554;-60
2023/01/08 04:27:42;;;;;;;28.83;15.63;;;;;;;5.83;100.00;-5951.81;5093148;28;20552;-59
2023/01/08 04:30:10;;;;;;;21.60;15.77;;;;;;;5.68;100.00;-6267.50;5092387;28;20188;-59
2023/01/08 04:32:37;;;;;;;25.33;17.23;;;;;;;5.70;100.00;-6900.38;5092935;28;20200;-60
2023/01/08 04:35:06;;;;;;;20.37;16.33;;;;;;;5.92;100.00;-7218.22;5093104;28;20199;-59
2023/01/08 04:37:33;;;;;;;20.00;15.90;;;;;;;5.79;100.00;-5318.59;5093357;28;20181;-60
2023/01/08 04:40:00;;;;;;;29.47;16.77;;;;;;;5.81;100.00;-5635.22;5092980;28;20328;-60
2023/01/08 04:42:27;;;;;;;19.63;15.50;;;;;;;5.84;100.00;-5002.19;5093253;28;20530;-59
2023/01/08 04:44:54;;;;;;;22.80;15.40;;;;;;;5.92;100.00;-3418.81;5092875;28;20237;-60
2023/01/08 04:47:21;;;;;;;17.60;15.83;;;;;;;5.96;100.00;-4369.16;5093039;28;20208;-59
2023/01/08 04:49:48;;;;;;;24.30;17.27;;;;;;;6.04;100.00;-4686.06;5093082;28;20559;-60
2023/01/08 04:52:16;;;;;;;23.73;17.87;;;;;;;6.10;100.00;-3735.78;5092796;28;20195;-60
2023/01/08 04:54:43;;;;;;;29.37;18.57;;;;;;;6.07;100.00;-3735.75;5092736;28;20184;-59
2023/01/08 04:57:10;;;;;;;33.27;18.33;;;;;;;6.03;100.00;-4369.28;5092714;28;20189;-61
2023/01/08 04:59:39;;;;;;;31.00;17.47;;;;;;;5.91;100.00;-6268.75;5093004;28;20574;-60
2023/01/08 05:02:06;;;;;;;25.57;17.33;;;;;;;5.88;100.00;-6901.53;5092585;28;20188;-59
2023/01/08 05:04:33;;;;;;;21.43;17.23;;;;;;;5.90;100.00;-6585.19;5092812;28;20188;-61
2023/01/08 05:06:59;;;;;;;24.57;17.43;;;;;;;5.70;100.00;-6267.63;5092677;28;20211;-60
2023/01/08 05:09:28;;;;;;;26.90;17.50;;;;;;;5.84;100.00;-7534.06;5092700;28;20203;-59
2023/01/08 05:11:55;;;;;;;26.47;16.97;;;;;;;5.65;100.00;-7848.94;5092478;28;20188;-59
2023/01/08 05:14:21;;;;;;;35.40;17.63;;;;;;;5.91;100.00;-9116.13;5092672;28;20206;-60
2023/01/08 05:16:48;;;;;;;19.93;17.23;;;;;;;5.98;100.00;-9116.81;5092611;28;20496;-61
2023/01/08 05:19:15;;;;;;;25.37;17.20;;;;;;;6.08;100.00;-9750.34;5092325;28;20650;-59
2023/01/08 05:21:42;;;;;;;25.77;17.40;;;;;;;6.10;100.00;-9118.00;5092354;28;20555;-61
2023/01/08 05:24:09;;;;;;;25.80;17.70;;;;;;;6.11;100.00;-9118.09;5092391;28;20188;-60
2023/01/08 05:26:38;;;;;;;22.63;18.07;;;;;;;6.32;100.00;-9120.19;5092595;28;20207;-59
2023/01/08 05:29:04;;;;;;;20.47;17.50;;;;;;;6.43;100.00;-8804.75;5092298;28;20195;-59
2023/01/08 05:31:31;;;;;;;35.17;17.90;;;;;;;6.50;100.00;-8172.09;5092321;28;20287;-61
2023/01/08 05:33:59;;;;;;;32.27;18.57;;;;;;;6.53;100.00;-7222.28;5091851;28;20224;-59
2023/01/08 05:36:26;;;;;;;32.40;19.03;;;;;;;6.58;100.00;-5955.28;5092399;28;20184;-59
2023/01/08 05:38:53;;;;;;;26.77;18.10;;;;;;;6.51;100.00;-5954.94;5091872;28;20271;-61
2023/01/08 05:41:20;;;;;;;26.03;18.67;;;;;;;6.46;100.00;-5954.75;5074142;28;20179;-60
2023/01/08 05:43:48;;;;;;;26.80;18.63;;;;;;;6.53;100.00;-6588.75;5092078;28;20625;-60
2023/01/08 05:46:15;;;;;;;26.83;18.20;;;;;;;6.29;100.00;-6270.69;5092189;28;20192;-59
2023/01/08 05:48:42;;;;;;;23.97;18.07;;;;;;;6.31;100.00;-7220.81;5092004;28;20208;-59
2023/01/08 05:51:09;;;;;;;37.63;19.40;;;;;;;6.28;100.00;-7537.19;5092026;28;20195;-60
2023/01/08 05:53:36;;;;;;;27.23;19.07;;;;;;;6.48;100.00;-8488.53;5091602;28;20192;-59
2023/01/08 05:56:05;;;;;;;34.27;19.63;;;;;;;6.26;100.00;-8803.16;5091885;28;20184;-60
2023/01/08 05:58:32;;;;;;;31.37;19.07;;;;;;;6.51;100.00;-10387.91;5091600;28;20278;-60
2023/01/08 06:01:04;;;;;;;35.27;20.37;;;;;;;6.36;100.00;-9437.03;5091578;28;20258;-59
2023/01/08 06:03:31;;;;;;;30.70;19.37;;;;;;;6.55;100.00;-10071.91;5091545;28;20185;-61
2023/01/08 06:06:01;;;;;;;25.87;18.57;;;;;;;6.62;100.00;-9439.63;5091869;28;20187;-59
2023/01/08 06:08:29;;;;;;;25.20;19.33;;;;;;;6.62;100.00;-9123.09;5091437;28;20204;-59
2023/01/08 06:10:59;;;;;;;28.60;19.43;;;;;;;6.78;100.00;-9757.97;5091764;28;20650;-61
2023/01/08 06:13:26;;;;;;;30.20;20.03;;;;;;;6.84;100.00;-9758.63;5091741;28;20716;-59
2023/01/08 06:15:53;;;;;;;28.47;19.87;;;;;;;6.84;100.00;-10075.22;5091779;28;20677;-59
2023/01/08 06:18:21;;;;;;;33.67;22.03;;;;;;;6.70;100.00;-10706.66;5091353;28;20181;-60
2023/01/08 06:20:48;;;;;;;31.33;20.93;;;;;;;6.95;100.00;-12925.28;5073554;28;20195;-60
2023/01/08 06:23:15;;;;;;;30.13;20.33;;;;;;;7.19;100.00;-13562.13;5091469;28;20580;-59
2023/01/08 06:25:42;;;;;;;30.90;19.77;;;;;;;7.40;100.00;-13565.63;5091272;28;20221;-59
2023/01/08 06:28:08;;;;;;;25.40;17.77;;;;;;;7.57;100.00;-13885.16;5091512;28;20690;-60
2023/01/08 06:30:35;;;;;;;29.53;18.93;;;;;;;7.72;100.00;-14204.47;5091619;28;20558;-59
2023/01/08 06:33:02;;;;;;;21.13;18.27;;;;;;;7.95;100.00;-14842.16;5091066;28;20239;-59
2023/01/08 06:35:31;;;;;;;22.63;19.77;;;;;;;8.17;100.00;-16113.38;5091584;28;20183;-60
2023/01/08 06:37:57;;;;;;;25.33;18.93;;;;;;;8.31;100.00;-16116.34;5073303;28;20180;-60
2023/01/08 06:40:24;;;;;;;24.67;19.33;;;;;;;8.52;100.00;-15803.88;5091192;28;20195;-60
2023/01/08 06:42:52;;;;;;;26.63;18.07;;;;;;;8.79;100.00;-15492.16;5091202;28;20188;-60
2023/01/08 06:45:19;;;;;;;22.43;19.07;;;;;;;9.04;100.00;-15180.03;5091373;28;20191;-60
2023/01/08 06:47:46;;;;;;;24.83;18.77;;;;;;;9.27;100.00;-14232.19;5091050;28;20215;-60
2023/01/08 06:50:13;;;;;;;39.40;20.23;;;;;;;9.48;100.00;-12329.97;5091185;28;20180;-59
2023/01/08 06:52:41;;;;;;;39.47;21.13;;;;;;;9.45;100.00;-3739.09;5091136;28;20195;-63
2023/01/08 06:55:09;;;;;;;47.83;20.40;;;;;;;9.47;100.00;-551.66;5094505;28;20592;-59
2023/01/08 06:57:38;;;;;;;36.13;19.77;;;;;;;9.45;100.00;5193.34;5095010;28;20176;-60
2023/01/08 07:00:06;;;;;;;27.30;18.83;;;;;;;9.35;100.00;12226.13;5095315;28;20613;-61
2023/01/08 07:02:33;;;;;;;28.50;20.23;;;;;;;8.91;100.00;18298.09;5094932;28;20203;-60
2023/01/08 07:05:00;;;;;;;31.80;21.10;;;;;;;9.02;100.00;11898.19;5095242;28;20518;-59
2023/01/08 07:07:27;;;;;;;25.70;18.20;;;;;;;9.05;100.00;10939.25;5095009;28;20230;-59
2023/01/08 07:09:55;;;;;;;21.93;18.63;;;;;;;9.21;100.00;11582.66;5095425;28;20195;-60
2023/01/08 07:12:22;;;;;;;30.60;18.77;;;;;;;9.29;100.00;15747.16;5094923;28;20199;-59
2023/01/08 07:14:49;;;;;;;24.53;18.97;;;;;;;9.15;100.00;18306.38;5095211;28;20184;-60
2023/01/08 07:17:16;;;;;;;32.63;19.70;;;;;;;9.23;100.00;19591.66;5095136;28;20653;-60
2023/01/08 07:19:43;;;;;;;32.67;19.90;;;;;;;9.30;100.00;21198.47;5094846;28;20187;-60
2023/01/08 07:22:10;;;;;;;24.17;18.87;;;;;;;9.22;100.00;21837.31;5094402;28;20244;-60
2023/01/08 07:24:37;;;;;;;28.97;19.40;;;;;;;9.37;100.00;24412.63;5094542;28;20198;-59
2023/01/08 07:27:05;;;;;;;31.00;18.60;;;;;;;9.38;100.00;24734.34;5094415;28;20195;-61
2023/01/08 07:29:32;;;;;;;25.43;19.93;;;;;;;9.38;100.00;21843.84;5094410;28;20210;-60
2023/01/08 07:31:59;;;;;;;29.53;19.77;;;;;;;9.53;100.00;19923.91;5094888;28;20188;-60
2023/01/08 07:34:25;;;;;;;28.57;19.10;;;;;;;10.51;100.00;15784.47;5094841;28;20232;-60
2023/01/08 07:36:52;;;;;;;31.40;19.27;;;;;;;12.10;100.00;57286.78;5094556;28;20658;-62
2023/01/08 07:39:19;;;;;;;30.50;18.27;;;;;;;13.66;100.00;149472.94;5094013;28;20204;-61
2023/01/08 07:41:46;;;;;;;25.47;18.17;;;;;;;14.31;100.00;149635.19;5094418;28;20623;-61
2023/01/08 07:44:14;;;;;;;25.23;18.30;;;;;;;14.31;100.00;149633.91;5094349;28;20180;-60
2023/01/08 07:46:41;;;;;;;25.03;17.43;;;;;;;14.27;100.00;149625.06;5094230;28;20297;-60
2023/01/08 07:49:08;;;;;;;31.87;21.67;;;;;;;13.92;100.00;149536.34;5094227;28;20240;-60
2023/01/08 07:51:35;;;;;;;24.00;18.03;;;;;;;13.51;100.00;149434.94;5094117;28;20550;-61
2023/01/08 07:54:02;;;;;;;17.83;15.93;;;;;;;13.36;100.00;149396.97;5094277;28;20185;-60
2023/01/08 07:56:29;;;;;;;20.53;17.00;;;;;;;13.25;100.00;149370.34;5075939;28;20184;-60
2023/01/08 07:58:55;;;;;;;22.53;16.83;;;;;;;13.05;100.00;149319.63;5093825;28;20180;-60
2023/01/08 08:01:24;;;;;;;18.23;16.40;;;;;;;12.95;100.00;149294.28;5093835;28;20295;-59
2023/01/08 08:03:51;;;;;;;18.77;16.30;;;;;;;13.82;100.00;149510.97;5093740;28;20230;-61
2023/01/08 08:06:18;;;;;;;14.50;13.23;;;;;;;15.01;100.00;149811.53;5094171;28;20551;-60
2023/01/08 08:08:45;;;;;;;21.70;15.20;;;;;;;15.17;100.00;149849.56;5093559;28;20212;-61
2023/01/08 08:11:12;;;;;;;13.83;12.33;;;;;;;16.34;100.00;150145.31;5093576;28;20184;-61
2023/01/08 08:13:43;;;;;;;14.73;13.50;;;;;;;18.26;100.00;150626.97;5093771;28;20188;-62
2023/01/08 08:16:11;;;;;;;12.30;11.60;;;;;;;19.49;100.00;150936.16;5093569;28;20191;-61
2023/01/08 08:18:42;;;;;;;11.07;10.37;;;;;;;19.84;100.00;151025.28;5093733;28;20219;-62
2023/01/08 08:21:09;;;;;;;8.13;7.53;;;;;;;19.33;100.00;150896.69;5093604;28;20188;-61
2023/01/08 08:23:36;;;;;;;10.33;9.83;;;;;;;19.45;100.00;150927.28;5093312;28;20184;-61
2023/01/08 08:26:04;;;;;;;10.47;9.93;;;;;;;19.61;100.00;150968.00;5093666;28;20188;-61
2023/01/08 08:28:31;;;;;;;10.80;10.32;;;;;;;19.75;100.00;151001.09;5093222;28;20200;-61
2023/01/08 08:30:57;;;;;;;13.27;11.87;;;;;;;19.71;100.00;150990.91;5093371;28;20191;-60
2023/01/08 08:33:24;;;;;;;13.93;12.67;;;;;;;18.73;100.00;150744.00;5093600;28;20528;-60
2023/01/08 08:35:52;;;;;;;12.90;11.97;;;;;;;18.06;100.00;150576.13;5093226;28;20191;-60
2023/01/08 08:38:19;;;;;;;15.93;14.33;;;;;;;17.12;100.00;150339.69;5093540;28;20210;-60
2023/01/08 08:40:46;;;;;;;14.27;13.07;;;;;;;16.58;100.00;150205.06;5093139;28;20185;-60
2023/01/08 08:43:13;;;;;;;15.63;13.70;;;;;;;16.24;100.00;150119.94;5092985;28;20196;-60
2023/01/08 08:45:40;;;;;;;16.30;14.67;;;;;;;17.17;100.00;150352.41;5093426;28;20201;-61
2023/01/08 08:48:07;;;;;;;14.53;13.33;;;;;;;18.79;100.00;150760.56;5092806;28;20204;-61
2023/01/08 08:50:34;;;;;;;12.87;11.83;;;;;;;19.81;100.00;151016.38;5093073;28;20192;-60
2023/01/08 08:53:04;;;;;;;11.47;10.63;;;;;;;20.34;100.00;151151.38;5093152;28;20196;-60
2023/01/08 08:55:31;;;;;;;10.13;9.43;;;;;;;22.13;91.36;151602.53;5093147;28;20723;-60
2023/01/08 08:58:04;;;;;;;10.70;10.20;;;;;;;23.24;82.10;151881.91;5092991;28;20180;-62
2023/01/08 09:00:31;;;;;;;10.63;10.13;;;;;;;24.14;76.23;152110.38;5092607;28;20242;-61
2023/01/08 09:02:57;;;;;;;9.60;9.10;;;;;;;24.65;69.17;152236.88;5092868;28;20536;-61
2023/01/08 09:05:25;;;;;;;10.70;9.80;;;;;;;24.79;67.72;152272.63;5092913;28;20195;-61
2023/01/08 09:07:53;;;;;;;9.60;8.85;;;;;;;24.87;66.38;152294.38;5092509;28;20635;-61
2023/01/08 09:10:21;;;;;;;9.93;9.15;;;;;;;25.69;62.48;152501.44;5092712;28;20555;-63
2023/01/08 09:12:48;;;;;;;8.65;7.90;;;;;;;26.16;57.22;152619.03;5092519;28;20192;-61
2023/01/08 09:15:15;;;;;;;8.18;7.55;;;;;;;25.08;59.89;152345.50;5092380;28;20184;-62
2023/01/08 09:17:43;;;;;;;8.05;7.70;;;;;;;24.75;62.61;152263.69;5091978;28;20204;-62
2023/01/08 09:20:10;;;;;;;7.90;7.60;;;;;;;25.47;59.42;152446.41;5092361;28;20187;-61
2023/01/08 09:22:37;;;;;;;8.48;8.07;;;;;;;26.42;56.22;152685.56;5092459;28;20623;-61
2023/01/08 09:25:05;;;;;;;10.60;9.90;;;;;;;25.48;57.62;152449.00;5092152;28;20190;-61
2023/01/08 09:27:33;;;;;;;10.40;9.90;;;;;;;25.27;60.82;152395.31;5092452;28;20207;-61
2023/01/08 09:30:00;;;;;;;10.00;9.40;;;;;;;24.65;61.82;152236.88;5092078;28;20204;-60
2023/01/08 09:32:27;;;;;;;10.32;9.82;;;;;;;24.72;61.54;152254.75;5092313;28;20665;-62
2023/01/08 09:34:54;;;;;;;7.85;7.30;;;;;;;24.46;60.48;152190.91;5092102;28;20702;-61
2023/01/08 09:37:22;;;;;;;7.15;6.80;;;;;;;26.09;54.42;152601.13;5092014;28;20188;-61
2023/01/08 09:39:49;;;;;;;5.65;5.35;;;;;;;26.91;49.59;152808.34;5091966;28;20271;-61
2023/01/08 09:42:20;;;;;;;6.95;6.28;;;;;;;25.12;53.10;152355.72;5091900;28;20227;-60
2023/01/08 09:44:52;;;;;;;8.57;7.80;;;;;;;25.50;55.06;152452.84;5092166;28;20659;-62
2023/01/08 09:47:27;;;;;;;10.27;7.78;;;;;;;26.21;51.39;152633.16;5091840;28;20195;-61
2023/01/08 09:49:58;;;;;;;3.97;3.78;;;;;;;24.98;49.34;152322.50;5091773;28;20250;-61
2023/01/08 09:52:25;;;;;;;4.60;4.32;;;;;;;24.04;52.87;152083.59;5091648;28;20224;-62
2023/01/08 09:54:52;;;;;;;4.28;4.07;;;;;;;24.08;53.95;152093.81;5091740;28;20194;-61
2023/01/08 09:57:21;;;;;;;5.88;5.57;;;;;;;23.40;56.11;151921.44;5092004;28;20276;-61
2023/01/08 09:59:50;;;;;;;7.43;7.03;;;;;;;23.51;58.28;151949.56;5091631;28;20195;-61
2023/01/08 10:02:19;;;;;;;5.90;5.60;;;;;;;23.58;56.20;151967.47;5091524;28;20188;-61
2023/01/08 10:04:48;;;;;;;5.35;5.05;;;;;;;22.40;60.05;151668.84;5091604;28;20195;-60
2023/01/08 10:07:24;;;;;;;4.38;4.18;;;;;;;22.50;59.19;151695.59;5091862;28;20184;-61
2023/01/08 10:09:51;;;;;;;4.95;3.92;;;;;;;21.38;61.75;151412.56;5091861;28;20569;-61
2023/01/08 10:12:24;;;;;;;3.88;3.58;;;;;;;21.79;60.10;151515.78;5091456;28;20184;-61
2023/01/08 10:14:53;;;;;;;3.45;3.25;;;;;;;21.74;61.04;151503.03;5091642;28;20195;-61
2023/01/08 10:17:27;;;;;;;4.18;3.95;;;;;;;21.82;62.50;151523.44;5091485;28;20187;-61
2023/01/08 10:19:54;;;;;;;3.95;3.85;;;;;;;22.15;62.62;151607.59;5091651;28;20195;-60
2023/01/08 10:22:23;;;;;;;4.50;4.10;;;;;;;21.60;63.36;151468.59;5091361;28;20305;-60
2023/01/08 10:24:51;;;;;;;3.88;3.67;;;;;;;22.54;60.58;151705.81;5091968;28;20596;-61
2023/01/08 10:27:21;;;;;;;3.75;3.50;;;;;;;22.62;60.03;151724.94;5091330;28;20191;-61
2023/01/08 10:29:50;;;;;;;4.57;4.28;;;;;;;21.24;66.99;151376.88;5094457;28;20582;-61
2023/01/08 10:32:29;;;;;;;4.63;4.30;;;;;;;22.41;64.27;151672.63;5095696;28;20184;-61
2023/01/08 10:34:57;;;;;;;6.03;5.57;;;;;;;21.48;72.74;151438.03;5095436;28;20238;-60
2023/01/08 10:37:28;;;;;;;5.35;5.05;;;;;;;21.53;71.99;151449.50;5095793;28;20669;-61
2023/01/08 10:40:00;;;;;;;5.60;5.30;;;;;;;21.62;71.38;151473.72;5095506;28;20184;-60
2023/01/08 10:42:27;;;;;;;5.03;4.47;;;;;;;22.36;65.96;151659.94;5095355;28;20196;-60
2023/01/08 10:44:58;;;;;;;5.03;4.82;;;;;;;21.86;69.11;151534.91;5095282;28;20184;-60
2023/01/08 10:47:29;;;;;;;7.25;6.78;;;;;;;19.79;88.09;151012.53;5095310;28;20180;-60
2023/01/08 10:49:58;;;;;;;5.88;5.57;;;;;;;20.02;88.15;151069.84;5095077;28;20278;-59
2023/01/08 10:52:31;;;;;;;8.75;8.00;;;;;;;20.47;87.45;151184.47;5095391;28;20649;-60
2023/01/08 10:55:10;;;;;;;8.40;7.68;;;;;;;20.39;90.24;151164.09;5095233;28;20261;-61
2023/01/08 10:57:37;;;;;;;7.40;6.97;;;;;;;20.05;93.70;151077.47;5095074;28;20199;-60
2023/01/08 11:00:04;;;;;;;6.93;6.53;;;;;;;19.32;96.59;150894.13;5094962;28;20184;-61
2023/01/08 11:02:36;;;;;;;8.32;7.82;;;;;;;19.91;94.45;151041.81;5095190;28;20566;-61
2023/01/08 11:05:06;;;;;;;9.23;8.50;;;;;;;19.65;94.89;150975.66;5094819;28;20185;-59
2023/01/08 11:07:34;;;;;;;8.93;8.20;;;;;;;18.93;100.00;150794.88;5094866;28;20188;-60
2023/01/08 11:10:03;;;;;;;8.23;7.72;;;;;;;18.75;100.00;150749.13;5095011;28;20682;-60
2023/01/08 11:12:35;;;;;;;8.45;8.05;;;;;;;19.19;100.00;150861.03;5094849;28;20184;-61
2023/01/08 11:15:04;;;;;;;9.23;8.82;;;;;;;19.01;100.00;150815.28;5095079;28;20188;-60
2023/01/08 11:17:34;;;;;;;8.10;7.72;;;;;;;18.41;100.00;150663.88;5076946;28;20192;-60
2023/01/08 11:20:10;;;;;;;6.97;6.53;;;;;;;18.73;100.00;150744.00;5076562;28;20571;-60
2023/01/08 11:22:37;;;;;;;7.83;7.30;;;;;;;17.26;100.00;150375.28;5094935;28;20562;-59